createdAt,value
2018-09-25T00:01:58.164Z,9.30
2018-09-25T00:04:32.091Z,9.30
2018-09-25T00:07:06.057Z,9.30
2018-09-25T00:09:39.957Z,9.00
2018-09-25T00:12:14.226Z,8.90
2018-09-25T00:14:48.162Z,8.80
2018-09-25T00:17:22.120Z,8.80
2018-09-25T00:19:56.206Z,8.80
2018-09-25T00:22:30.173Z,8.80
2018-09-25T00:25:04.327Z,8.70
2018-09-25T00:27:38.506Z,8.60
2018-09-25T00:30:12.401Z,8.50
2018-09-25T00:32:46.546Z,8.40
2018-09-25T00:35:20.420Z,8.30
2018-09-25T00:37:54.514Z,8.30
2018-09-25T00:40:28.954Z,8.40
2018-09-25T00:43:02.951Z,8.40
2018-09-25T00:45:36.792Z,8.40
2018-09-25T00:48:11.242Z,8.30
2018-09-25T00:50:45.094Z,8.30
2018-09-25T00:53:19.089Z,8.30
2018-09-25T00:55:53.384Z,8.30
2018-09-25T00:58:27.297Z,8.40
2018-09-25T01:01:01.056Z,8.40
2018-09-25T01:03:35.029Z,8.50
2018-09-25T01:06:09.329Z,8.40
2018-09-25T01:08:43.148Z,8.40
2018-09-25T01:11:17.319Z,8.40
2018-09-25T01:13:51.265Z,8.30
2018-09-25T01:16:25.329Z,8.20
2018-09-25T01:18:59.401Z,8.20
2018-09-25T01:21:33.182Z,8.20
2018-09-25T01:24:07.504Z,8.20
2018-09-25T01:26:41.753Z,8.00
2018-09-25T01:29:15.631Z,7.90
2018-09-25T01:31:49.717Z,7.70
2018-09-25T01:34:23.707Z,7.70
2018-09-25T01:36:57.746Z,7.80
2018-09-25T01:39:31.767Z,7.90
2018-09-25T01:42:05.937Z,7.90
2018-09-25T01:44:39.964Z,8.00
2018-09-25T01:47:14.174Z,8.10
2018-09-25T01:49:48.101Z,8.00
2018-09-25T01:52:22.109Z,7.90
2018-09-25T01:54:55.999Z,7.80
2018-09-25T01:57:30.054Z,7.80
2018-09-25T02:00:04.174Z,7.90
2018-09-25T02:02:39.088Z,7.90
2018-09-25T02:05:13.031Z,7.90
2018-09-25T02:07:47.185Z,7.80
2018-09-25T02:10:21.291Z,7.70
2018-09-25T02:12:56.290Z,7.50
2018-09-25T02:15:30.258Z,7.60
2018-09-25T02:18:04.987Z,7.70
2018-09-25T02:20:39.007Z,7.80
2018-09-25T02:23:13.568Z,7.70
2018-09-25T02:25:47.269Z,7.60
2018-09-25T02:28:21.094Z,7.60
2018-09-25T02:30:55.069Z,7.60
2018-09-25T02:33:29.206Z,7.70
2018-09-25T02:36:03.077Z,7.70
2018-09-25T02:38:36.862Z,7.70
2018-09-25T02:41:10.945Z,7.70
2018-09-25T02:43:45.069Z,7.70
2018-09-25T02:46:19.593Z,7.50
2018-09-25T02:48:53.794Z,7.40
2018-09-25T02:51:28.330Z,7.20
2018-09-25T02:54:02.554Z,7.00
2018-09-25T02:56:36.462Z,7.10
2018-09-25T02:59:10.576Z,7.10
2018-09-25T03:01:51.074Z,7.10
2018-09-25T03:04:24.943Z,7.00
2018-09-25T03:06:59.089Z,7.00
2018-09-25T03:09:33.480Z,7.10
2018-09-25T03:12:07.408Z,7.20
2018-09-25T03:14:41.242Z,7.20
2018-09-25T03:17:15.253Z,7.10
2018-09-25T03:19:49.118Z,7.10
2018-09-25T03:22:23.091Z,6.70
2018-09-25T03:24:57.293Z,6.60
2018-09-25T03:27:31.238Z,6.60
2018-09-25T03:30:05.140Z,6.70
2018-09-25T03:32:39.810Z,6.70
2018-09-25T03:35:13.998Z,6.80
2018-09-25T03:37:47.943Z,6.80
2018-09-25T03:40:21.937Z,6.70
2018-09-25T03:42:55.946Z,6.50
2018-09-25T03:45:29.798Z,6.40
2018-09-25T03:48:03.536Z,6.50
2018-09-25T03:50:37.527Z,6.60
2018-09-25T03:53:11.579Z,6.70
2018-09-25T03:55:45.609Z,6.70
2018-09-25T03:58:20.332Z,6.60
2018-09-25T04:00:55.616Z,6.40
2018-09-25T04:03:29.501Z,6.30
2018-09-25T04:06:03.675Z,6.20
2018-09-25T04:08:37.674Z,6.10
2018-09-25T04:11:11.644Z,6.10
2018-09-25T04:13:45.417Z,6.20
2018-09-25T04:16:19.361Z,6.20
2018-09-25T04:18:53.551Z,6.30
2018-09-25T04:21:27.486Z,6.20
2018-09-25T04:24:01.532Z,6.20
2018-09-25T04:26:35.499Z,6.20
2018-09-25T04:29:09.538Z,6.20
2018-09-25T04:31:43.436Z,6.20
2018-09-25T04:34:18.126Z,6.10
2018-09-25T04:36:52.132Z,6.20
2018-09-25T04:39:26.312Z,6.30
2018-09-25T04:42:00.167Z,6.30
2018-09-25T04:44:34.740Z,6.10
2018-09-25T04:47:09.368Z,5.90
2018-09-25T04:49:43.234Z,5.80
2018-09-25T04:52:17.192Z,5.70
2018-09-25T04:54:51.105Z,5.60
2018-09-25T04:57:25.189Z,5.50
2018-09-25T04:59:59.206Z,5.50
2018-09-25T05:02:33.189Z,5.60
2018-09-25T05:05:07.242Z,5.60
2018-09-25T05:07:41.019Z,5.50
2018-09-25T05:10:14.858Z,5.50
2018-09-25T05:12:48.947Z,5.50
2018-09-25T05:15:23.137Z,5.50
2018-09-25T05:17:57.526Z,5.60
2018-09-25T05:20:31.619Z,5.60
2018-09-25T05:23:05.557Z,5.70
2018-09-25T05:25:39.848Z,5.70
2018-09-25T05:28:14.621Z,5.80
2018-09-25T05:30:48.829Z,5.90
2018-09-25T05:33:22.812Z,6.00
2018-09-25T05:35:57.045Z,6.00
2018-09-25T05:38:31.310Z,5.80
2018-09-25T05:41:05.332Z,5.60
2018-09-25T05:43:39.241Z,5.60
2018-09-25T05:46:13.214Z,5.70
2018-09-25T05:48:46.963Z,5.60
2018-09-25T05:51:21.097Z,5.70
2018-09-25T05:53:54.855Z,5.80
2018-09-25T05:56:29.185Z,5.80
2018-09-25T05:59:03.184Z,5.80
2018-09-25T06:01:37.035Z,5.80
2018-09-25T06:04:11.089Z,5.90
2018-09-25T06:06:45.402Z,5.80
2018-09-25T06:09:19.296Z,5.80
2018-09-25T06:11:53.061Z,5.90
2018-09-25T06:14:27.022Z,5.90
2018-09-25T06:17:00.910Z,6.00
2018-09-25T06:19:34.945Z,6.00
2018-09-25T06:22:08.985Z,6.10
2018-09-25T06:24:42.861Z,6.10
2018-09-25T06:27:16.802Z,6.10
2018-09-25T06:29:50.688Z,6.20
2018-09-25T06:32:25.129Z,6.20
2018-09-25T06:34:59.027Z,6.20
2018-09-25T06:37:32.825Z,6.40
2018-09-25T06:40:06.621Z,6.40
2018-09-25T06:42:40.859Z,6.50
2018-09-25T06:45:14.857Z,6.50
2018-09-25T06:47:48.977Z,6.70
2018-09-25T06:50:23.823Z,7.00
2018-09-25T06:52:57.749Z,7.10
2018-09-25T06:55:31.705Z,7.20
2018-09-25T06:58:05.882Z,7.20
2018-09-25T07:00:40.184Z,7.20
2018-09-25T07:03:14.257Z,7.40
2018-09-25T07:05:48.292Z,7.60
2018-09-25T07:08:22.864Z,7.90
2018-09-25T07:10:56.768Z,8.10
2018-09-25T07:13:30.829Z,8.10
2018-09-25T07:16:05.437Z,8.20
2018-09-25T07:18:39.458Z,8.60
2018-09-25T07:21:13.462Z,8.90
2018-09-25T07:23:48.266Z,8.90
2018-09-25T07:26:22.206Z,8.90
2018-09-25T07:28:56.838Z,9.10
2018-09-25T07:31:30.674Z,9.60
2018-09-25T07:34:04.696Z,9.70
2018-09-25T07:36:38.723Z,9.80
2018-09-25T07:39:15.562Z,9.70
2018-09-25T07:41:49.685Z,9.70
2018-09-25T07:44:24.216Z,9.90
2018-09-25T07:46:58.988Z,10.20
2018-09-25T07:49:33.084Z,10.50
2018-09-25T07:52:06.931Z,10.80
2018-09-25T07:54:41.426Z,10.70
2018-09-25T07:57:15.495Z,10.90
2018-09-25T07:59:49.266Z,11.60
2018-09-25T08:02:23.204Z,12.20
2018-09-25T08:04:57.901Z,12.70
2018-09-25T08:07:31.982Z,12.60
2018-09-25T08:10:06.301Z,12.70
2018-09-25T08:12:40.205Z,13.20
2018-09-25T08:15:14.824Z,13.40
2018-09-25T08:17:48.822Z,13.50
2018-09-25T08:20:22.570Z,14.00
2018-09-25T08:22:56.864Z,14.30
2018-09-25T08:25:31.524Z,14.30
2018-09-25T08:28:05.484Z,14.00
2018-09-25T08:30:39.407Z,13.50
2018-09-25T08:33:13.399Z,13.60
2018-09-25T08:35:47.266Z,13.90
2018-09-25T08:38:21.721Z,14.40
2018-09-25T08:40:56.398Z,14.50
2018-09-25T08:43:30.487Z,14.20
2018-09-25T08:46:04.338Z,14.20
2018-09-25T08:48:38.612Z,14.40
2018-09-25T08:51:13.667Z,14.80
2018-09-25T08:53:47.487Z,15.10
2018-09-25T08:56:22.125Z,14.90
2018-09-25T08:58:56.301Z,15.10
2018-09-25T09:01:30.357Z,15.50
2018-09-25T09:04:04.467Z,15.30
2018-09-25T09:06:38.600Z,15.60
2018-09-25T09:09:15.249Z,15.10
2018-09-25T09:11:49.233Z,15.30
2018-09-25T09:14:23.162Z,15.90
2018-09-25T09:16:57.057Z,15.90
2018-09-25T09:19:31.187Z,16.00
2018-09-25T09:22:04.889Z,16.20
2018-09-25T09:24:38.914Z,16.30
2018-09-25T09:27:13.220Z,16.40
2018-09-25T09:29:47.223Z,16.60
2018-09-25T09:32:21.321Z,16.60
2018-09-25T09:34:55.525Z,16.30
2018-09-25T09:37:29.480Z,16.80
2018-09-25T09:40:03.643Z,16.80
2018-09-25T09:42:37.611Z,16.70
2018-09-25T09:45:11.576Z,16.90
2018-09-25T09:47:45.288Z,17.00
2018-09-25T09:50:19.495Z,17.10
2018-09-25T09:52:53.665Z,16.50
2018-09-25T09:55:27.814Z,16.20
2018-09-25T09:58:01.862Z,16.30
2018-09-25T10:00:35.888Z,15.50
2018-09-25T10:03:10.124Z,15.30
2018-09-25T10:05:44.142Z,15.40
2018-09-25T10:08:18.120Z,15.90
2018-09-25T10:10:52.173Z,15.90
2018-09-25T10:13:26.133Z,15.60
2018-09-25T10:16:00.743Z,15.70
2018-09-25T10:18:35.004Z,15.90
2018-09-25T10:21:08.865Z,15.60
2018-09-25T10:23:42.853Z,15.40
2018-09-25T10:26:16.841Z,15.50
2018-09-25T10:28:50.681Z,15.40
2018-09-25T10:31:31.458Z,15.20
2018-09-25T10:34:05.487Z,15.40
2018-09-25T10:36:39.485Z,15.80
2018-09-25T10:39:14.650Z,15.90
2018-09-25T10:41:49.062Z,15.70
2018-09-25T10:44:22.950Z,15.50
2018-09-25T10:46:56.885Z,15.30
2018-09-25T10:49:31.049Z,15.40
2018-09-25T10:52:05.303Z,15.90
2018-09-25T10:54:39.292Z,15.30
2018-09-25T10:57:13.409Z,15.30
2018-09-25T10:59:47.500Z,15.40
2018-09-25T11:02:21.699Z,16.00
2018-09-25T11:04:55.501Z,16.60
2018-09-25T11:07:29.353Z,17.00
2018-09-25T11:10:03.304Z,16.90
2018-09-25T11:12:37.138Z,17.20
2018-09-25T11:15:11.124Z,16.40
2018-09-25T11:17:45.287Z,15.70
2018-09-25T11:20:19.225Z,15.40
2018-09-25T11:22:53.069Z,15.80
2018-09-25T11:25:27.074Z,16.60
2018-09-25T11:28:01.077Z,17.00
2018-09-25T11:30:35.037Z,17.30
2018-09-25T11:33:09.073Z,17.70
2018-09-25T11:35:42.991Z,17.90
2018-09-25T11:38:17.139Z,18.00
2018-09-25T11:40:51.764Z,17.70
2018-09-25T11:43:26.350Z,17.30
2018-09-25T11:46:00.155Z,17.90
2018-09-25T11:48:34.052Z,18.40
2018-09-25T11:51:08.237Z,18.50
2018-09-25T11:53:42.952Z,18.30
2018-09-25T11:56:17.022Z,18.40
2018-09-25T11:58:51.548Z,18.40
2018-09-25T12:01:25.163Z,18.50
2018-09-25T12:03:59.086Z,18.30
2018-09-25T12:06:33.751Z,17.30
2018-09-25T12:09:07.771Z,17.20
2018-09-25T12:11:41.697Z,17.70
2018-09-25T12:14:15.718Z,17.50
2018-09-25T12:16:49.776Z,17.80
2018-09-25T12:19:23.853Z,18.40
2018-09-25T12:21:57.832Z,18.30
2018-09-25T12:24:31.880Z,18.80
2018-09-25T12:27:05.775Z,18.30
2018-09-25T12:29:39.878Z,18.00
2018-09-25T12:32:13.913Z,17.70
2018-09-25T12:34:47.904Z,16.90
2018-09-25T12:37:22.158Z,16.70
2018-09-25T12:39:56.134Z,16.60
2018-09-25T12:42:30.356Z,16.70
2018-09-25T12:45:04.596Z,16.70
2018-09-25T12:47:38.642Z,16.90
2018-09-25T12:50:12.614Z,16.90
2018-09-25T12:52:47.384Z,17.10
2018-09-25T12:55:21.437Z,17.40
2018-09-25T12:57:56.154Z,17.90
2018-09-25T13:00:30.389Z,17.50
2018-09-25T13:03:04.521Z,17.00
2018-09-25T13:05:38.487Z,16.80
2018-09-25T13:08:12.726Z,16.60
2018-09-25T13:10:46.588Z,16.60
2018-09-25T13:13:20.699Z,16.60
2018-09-25T13:15:54.890Z,16.60
2018-09-25T13:18:28.786Z,16.60
2018-09-25T13:21:03.065Z,16.60
2018-09-25T13:23:37.379Z,16.60
2018-09-25T13:26:12.012Z,16.50
2018-09-25T13:28:46.242Z,16.30
2018-09-25T13:31:20.786Z,16.30
2018-09-25T13:33:54.847Z,16.30
2018-09-25T13:36:28.761Z,16.00
2018-09-25T13:39:02.832Z,16.30
2018-09-25T13:41:36.686Z,16.50
2018-09-25T13:44:10.953Z,16.40
2018-09-25T13:46:45.377Z,16.40
2018-09-25T13:49:19.446Z,16.00
2018-09-25T13:51:54.220Z,16.00
2018-09-25T13:54:28.186Z,16.20
2018-09-25T13:57:02.970Z,16.00
2018-09-25T13:59:36.787Z,16.20
2018-09-25T14:02:10.674Z,16.50
2018-09-25T14:04:45.126Z,16.00
2018-09-25T14:07:19.008Z,16.30
2018-09-25T14:09:53.122Z,16.20
2018-09-25T14:12:27.109Z,15.90
2018-09-25T14:15:01.681Z,15.80
2018-09-25T14:17:35.774Z,15.80
2018-09-25T14:20:10.010Z,15.90
2018-09-25T14:22:43.886Z,16.20
2018-09-25T14:25:18.119Z,16.20
2018-09-25T14:27:52.236Z,15.90
2018-09-25T14:30:26.702Z,16.00
2018-09-25T14:33:00.653Z,16.20
2018-09-25T14:35:34.621Z,16.10
2018-09-25T14:38:08.585Z,16.00
2018-09-25T14:40:42.264Z,16.10
2018-09-25T14:43:16.430Z,16.40
2018-09-25T14:45:50.966Z,16.50
2018-09-25T14:48:24.949Z,16.50
2018-09-25T14:50:58.775Z,16.40
2018-09-25T14:53:33.061Z,16.40
2018-09-25T14:56:07.584Z,16.30
2018-09-25T14:58:41.798Z,15.90
2018-09-25T15:01:15.864Z,15.70
2018-09-25T15:03:49.831Z,15.90
2018-09-25T15:06:24.141Z,15.90
2018-09-25T15:08:57.949Z,15.90
2018-09-25T15:11:32.124Z,16.00
2018-09-25T15:14:06.067Z,15.90
2018-09-25T15:16:40.124Z,15.70
2018-09-25T15:19:14.733Z,15.70
2018-09-25T15:21:49.537Z,15.80
2018-09-25T15:24:24.351Z,15.70
2018-09-25T15:26:59.125Z,15.60
2018-09-25T15:29:33.337Z,15.50
2018-09-25T15:32:07.250Z,15.40
2018-09-25T15:34:41.182Z,15.40
2018-09-25T15:37:15.421Z,15.40
2018-09-25T15:39:49.993Z,15.30
2018-09-25T15:42:24.000Z,15.20
2018-09-25T15:44:57.941Z,15.20
2018-09-25T15:47:32.063Z,15.10
2018-09-25T15:50:06.082Z,15.00
2018-09-25T15:52:40.196Z,15.00
2018-09-25T15:55:14.336Z,15.00
2018-09-25T15:57:48.387Z,14.90
2018-09-25T16:00:22.810Z,14.90
2018-09-25T16:02:56.654Z,14.90
2018-09-25T16:05:30.708Z,14.90
2018-09-25T16:08:04.637Z,14.90
2018-09-25T16:10:38.496Z,14.90
2018-09-25T16:13:12.565Z,15.00
2018-09-25T16:15:46.417Z,14.80
2018-09-25T16:18:20.263Z,14.70
2018-09-25T16:20:54.199Z,14.70
2018-09-25T16:23:28.130Z,14.60
2018-09-25T16:26:02.131Z,14.50
2018-09-25T16:28:36.303Z,14.50
2018-09-25T16:31:10.411Z,14.50
2018-09-25T16:33:44.721Z,14.40
2018-09-25T16:36:18.622Z,14.40
2018-09-25T16:38:52.622Z,14.30
2018-09-25T16:41:28.139Z,14.30
2018-09-25T16:44:02.596Z,14.20
2018-09-25T16:46:36.520Z,14.10
2018-09-25T16:49:10.691Z,14.00
2018-09-25T16:51:44.881Z,14.10
2018-09-25T16:54:19.340Z,14.00
2018-09-25T16:56:53.289Z,14.00
2018-09-25T16:59:27.274Z,13.90
2018-09-25T17:02:01.698Z,13.80
2018-09-25T17:04:36.572Z,13.90
2018-09-25T17:07:10.595Z,13.80
2018-09-25T17:09:44.600Z,13.70
2018-09-25T17:12:18.733Z,13.70
2018-09-25T17:14:52.570Z,13.70
2018-09-25T17:17:26.632Z,13.70
2018-09-25T17:20:00.623Z,13.60
2018-09-25T17:22:35.361Z,13.60
2018-09-25T17:25:09.502Z,13.60
2018-09-25T17:27:43.397Z,13.40
2018-09-25T17:30:17.635Z,13.30
2018-09-25T17:32:52.265Z,13.30
2018-09-25T17:35:26.253Z,13.20
2018-09-25T17:38:00.906Z,13.20
2018-09-25T17:40:34.907Z,13.30
2018-09-25T17:43:09.117Z,13.10
2018-09-25T17:45:43.494Z,13.10
2018-09-25T17:48:17.726Z,13.00
2018-09-25T17:50:52.191Z,12.90
2018-09-25T17:53:26.757Z,12.80
2018-09-25T17:56:00.984Z,12.80
2018-09-25T17:58:35.055Z,12.80
2018-09-25T18:01:09.023Z,12.70
2018-09-25T18:03:43.095Z,12.50
2018-09-25T18:06:17.887Z,12.50
2018-09-25T18:08:51.926Z,12.40
2018-09-25T18:11:25.846Z,12.40
2018-09-25T18:13:59.862Z,12.30
2018-09-25T18:16:34.035Z,12.20
2018-09-25T18:19:08.004Z,12.10
2018-09-25T18:21:42.708Z,12.00
2018-09-25T18:24:16.666Z,11.90
2018-09-25T18:26:50.761Z,11.90
2018-09-25T18:29:25.142Z,11.90
2018-09-25T18:31:59.916Z,11.80
2018-09-25T18:34:33.862Z,11.80
2018-09-25T18:37:07.662Z,11.70
2018-09-25T18:39:41.788Z,11.60
2018-09-25T18:42:15.860Z,11.40
2018-09-25T18:44:49.939Z,11.40
2018-09-25T18:47:23.921Z,11.30
2018-09-25T18:49:58.541Z,11.10
2018-09-25T18:52:32.464Z,11.00
2018-09-25T18:55:06.358Z,10.90
2018-09-25T18:57:40.940Z,10.80
2018-09-25T19:00:15.686Z,10.80
2018-09-25T19:02:49.935Z,10.90
2018-09-25T19:05:23.929Z,10.90
2018-09-25T19:07:57.925Z,10.90
2018-09-25T19:10:32.483Z,10.90
2018-09-25T19:13:06.395Z,10.90
2018-09-25T19:15:41.154Z,10.80
2018-09-25T19:18:15.334Z,10.70
2018-09-25T19:20:49.363Z,10.60
2018-09-25T19:23:23.292Z,10.50
2018-09-25T19:25:57.934Z,10.40
2018-09-25T19:28:32.143Z,10.30
2018-09-25T19:31:06.501Z,10.30
2018-09-25T19:33:40.701Z,10.20
2018-09-25T19:36:14.695Z,10.20
2018-09-25T19:38:49.184Z,10.10
2018-09-25T19:41:23.365Z,10.10
2018-09-25T19:43:57.539Z,10.00
2018-09-25T19:46:31.525Z,10.00
2018-09-25T19:49:05.519Z,9.90
2018-09-25T19:51:39.402Z,9.80
2018-09-25T19:54:13.752Z,9.80
2018-09-25T19:56:47.912Z,9.70
2018-09-25T19:59:21.978Z,9.70
2018-09-25T20:01:55.932Z,9.80
2018-09-25T20:04:30.559Z,9.70
2018-09-25T20:07:04.862Z,9.60
2018-09-25T20:09:39.433Z,9.60
2018-09-25T20:12:13.653Z,9.50
2018-09-25T20:14:47.541Z,9.40
2018-09-25T20:17:21.591Z,9.40
2018-09-25T20:19:55.372Z,9.30
2018-09-25T20:22:29.294Z,9.20
2018-09-25T20:25:03.298Z,9.20
2018-09-25T20:27:37.443Z,9.20
2018-09-25T20:30:11.774Z,9.20
2018-09-25T20:32:45.552Z,9.10
2018-09-25T20:35:19.754Z,9.00
2018-09-25T20:37:54.482Z,9.00
2018-09-25T20:40:28.408Z,9.10
2018-09-25T20:43:02.236Z,9.00
2018-09-25T20:45:36.201Z,9.00
2018-09-25T20:48:10.278Z,9.00
2018-09-25T20:50:44.399Z,8.90
2018-09-25T20:53:18.996Z,8.90
2018-09-25T20:55:53.224Z,8.80
2018-09-25T20:58:27.797Z,8.70
2018-09-25T21:01:01.696Z,8.70
2018-09-25T21:03:35.890Z,8.60
2018-09-25T21:06:09.794Z,8.60
2018-09-25T21:08:43.727Z,8.60
2018-09-25T21:11:18.327Z,8.70
2018-09-25T21:13:52.140Z,8.80
2018-09-25T21:16:25.955Z,8.80
2018-09-25T21:19:00.566Z,8.80
2018-09-25T21:21:34.507Z,8.70
2018-09-25T21:24:08.616Z,8.70
2018-09-25T21:26:42.786Z,8.60
2018-09-25T21:29:16.894Z,8.50
2018-09-25T21:31:50.749Z,8.50
2018-09-25T21:34:25.327Z,8.50
2018-09-25T21:36:59.217Z,8.60
2018-09-25T21:39:34.297Z,8.70
2018-09-25T21:42:08.166Z,8.80
2018-09-25T21:44:42.158Z,8.80
2018-09-25T21:47:16.743Z,8.90
2018-09-25T21:49:52.261Z,9.00
2018-09-25T21:52:26.509Z,9.00
2018-09-25T21:55:00.608Z,9.10
2018-09-25T21:57:34.761Z,9.10
2018-09-25T22:00:09.341Z,9.20
2018-09-25T22:02:43.348Z,9.10
2018-09-25T22:05:17.554Z,9.20
2018-09-25T22:07:52.330Z,9.10
2018-09-25T22:10:26.345Z,9.10
2018-09-25T22:13:00.230Z,9.00
2018-09-25T22:15:34.686Z,9.10
2018-09-25T22:18:08.652Z,9.20
2018-09-25T22:20:42.472Z,9.30
2018-09-25T22:23:16.716Z,9.30
2018-09-25T22:25:50.670Z,9.20
2018-09-25T22:28:24.569Z,9.10
2018-09-25T22:30:58.860Z,9.10
2018-09-25T22:33:32.793Z,9.00
2018-09-25T22:36:06.870Z,8.70
2018-09-25T22:38:41.302Z,8.50
2018-09-25T22:41:15.105Z,8.40
2018-09-25T22:43:48.864Z,8.50
2018-09-25T22:46:22.755Z,8.50
2018-09-25T22:48:56.602Z,8.40
2018-09-25T22:51:30.646Z,8.40
2018-09-25T22:54:04.273Z,8.30
2018-09-25T22:56:38.522Z,8.20
2018-09-25T22:59:13.222Z,8.00
2018-09-25T23:01:47.456Z,8.00
2018-09-25T23:04:21.393Z,8.00
2018-09-25T23:06:55.376Z,7.90
2018-09-25T23:09:29.393Z,7.80
2018-09-25T23:12:03.426Z,7.90
2018-09-25T23:14:37.323Z,8.00
2018-09-25T23:17:11.236Z,8.00
2018-09-25T23:19:45.299Z,8.10
2018-09-25T23:22:19.343Z,8.20
2018-09-25T23:24:53.149Z,8.20
2018-09-25T23:27:27.210Z,8.30
2018-09-25T23:30:01.209Z,8.20
2018-09-25T23:32:35.099Z,7.90
2018-09-25T23:35:09.350Z,7.80
2018-09-25T23:37:43.811Z,7.70
2018-09-25T23:40:18.009Z,7.90
2018-09-25T23:42:55.730Z,7.90
2018-09-25T23:45:29.349Z,7.90
2018-09-25T23:48:03.494Z,7.90
2018-09-25T23:50:52.609Z,7.80
2018-09-25T23:53:27.144Z,7.70
2018-09-25T23:56:01.397Z,7.80
2018-09-25T23:58:35.910Z,7.80
